KEAN

Details ICAO KEAN
Name PHIFER AFLD
Region United States
Timezone America/Denver (UTC-6.0)
Plans Departing 2
Arriving 4
Stats Elevation 4,774 ft / 1,455 m (AMSL)
Location 42.055548° -104.928676°
Runways 1
Magnetic Variation 8.336° E
Sunrise 2018-05-27 11:30:40 UTC / 2018-05-27 05:30:40 Local
Sunset 2018-05-28 02:26:02 UTC / 2018-05-27 20:26:02 Local
Advertisement - Login to hide

Runways

ID Width Length Bearing (true) Bearing (mag) Surface Threshold Offset Overrun Length
08 75 ft / 23 m 5,887 ft / 1,794 m 89.39° 81.05° Asphalt 0 ft / 0 m 0 ft / 0 m
26 75 ft / 23 m 5,887 ft / 1,794 m 269.41° 261.07° Asphalt 0 ft / 0 m 0 ft / 0 m

Map

Weather


0- 5 10 15 20 25 30 35+ Temperature / ° C

Clouds and Precipitation
Forecast for 2018-05-27 12:00 UTC. Updated 3 hours ago

Ground ~20,000 ft ~40,000 ft Winds

METAR

KEAN 271415Z AUTO 30014G23KT 10SM CLR 20/12 A2993 RMK AO2 T02000120

TAF

Not found

Frequencies

Unicom 122.90 MHz CTAF
Warning: Do not use this data for real-world aviation or navigation. No guarantee of current accuracy is given.